LKTB/BRQ METAR and TAF weather

Enter ICAO airport designator
Station Type Date Time Source
LKTB METAR 2020/07/08 21:30 UTC NOAA

LKTB 082130Z VRB01KT 9999 -RA FEW006 15/14 Q1018 NOSIG


Station Type Date Time Source
LKTB Decoded METAR 2020/07/08 21:30 UTC NOAA

Brno / Turany, Czech Republic (LKTB) 49-09N 016-42E 246M
Jul 08, 2020 - 05:30 PM EDT / 2020.07.08 2130 UTC
Wind: Variable at 1 MPH (1 KT):0
Visibility: greater than 7 mile(s):0
Sky conditions: mostly clear
Weather: light rain
Temperature: 59 F (15 C)
Dew Point: 57 F (14 C)
Relative Humidity: 93%
Pressure (altimeter): 30.06 in. Hg (1018 hPa)
ob: LKTB 082130Z VRB01KT 9999 -RA FEW006 15/14 Q1018 NOSIG
cycle: 21

Station Type Date Time Source
LKTB TAF 2020/07/08 18:16 UTC NOAA

TAF LKTB 081700Z 0818/1000 VRB02KT 9999 -RA SCT033 BKN040
TEMPO 0820/0906 7000 RA SCT010 BKN020
BECMG 0906/0908 19004KT 9999 SCT036

Example: see airport list